ログ速トップ
サイトで絞り込む
K i s M y F t」で検索 8919件中 1 - 50 表示
板名 タイトル レス数 更新日付 勢い
FF・ドラクエ sc 【FF7R】FINAL FANTASY VII REMAKE part331【リメイク】 71 2020-08-07 01:10 315
噂話 sc K i s - M y - F t 2 の噂 Part2832 611 2020-08-07 01:06 1849
海外サッカー sc 【イングランド2部】EFL Sky Bet Championship 4 756 2020-08-07 00:14 2
車種・メーカー sc 【MAZDA】マツダCX-5 2代目(KF) Vol.76【SKYACTIV】 214 2020-08-07 00:03 25
PCアクション sc Fall Guys: Ultimate Knockout Part1 243 2020-08-06 23:48 77
家庭用ゲーム sc 【PS4】Fall Guys: Ultimate Knockout Part 4 720 2020-08-06 22:46 1192
プログラム sc 次世代言語21 Go Nim Rust Swift Kotlin TypeScript 214 2020-08-06 21:55 1
FF・ドラクエ sc 【FF7R】FINAL FANTASY VII REMAKE part330【リメイク】 1001 2020-08-06 20:29 237
HR・HM sc Fuki (LIGHT BRINGER,Unlucky Morpheus,etc) 646 2020-08-06 19:55 1
ニュー速VIP sc PS4版のSkyrim Special EditionとFallout 4 G.O.T.Y. Bundleがセットになって4391円なんだけど買いかな? 4 2020-08-06 17:03 389
家庭用ゲーム sc 【Switch/PS4/One/Steam】遊戯王 Legacy of the Duelist: Link Evolution 23ドロー目【LotD:LE】 701 2020-08-06 16:58 9
噂話 sc 【安置可】kis-My-Ft2の議論スレPart40【プラム婆不可】 276 2020-08-06 13:39 8
噂話 sc K i s - M y - F t 2 の噂 Part2830 1001 2020-08-06 13:27 433
家庭用ゲーム sc 【PS4】Fall Guys: Ultimate Knockout Part 3 1001 2020-08-06 10:39 1317
ニュー速VIP sc Aimyon & Nana Komatsu Foreign Supporters Meeting🇺🇸🇬🇧 7 2020-08-06 09:01 1583
ポケモンGO sc 【台湾】Pokemon GO Safari Zone in New Taipei City【10/3-6開催】 7 思い出 696 2020-08-06 02:52 2
Netflix sc 【Netflix】アンブレイカブル・キミー・シュミット: キミーVS教祖 / Kimmy vs. The Reverend | Interactive Special【インタラクティブ】 28 2020-08-06 00:56 118
車種・メーカー sc 【MAZDA】2代目(KF)CX-5納車待ちVol.12【SKYACTIV】 800 2020-08-05 21:48 1
スポーツクラブ sc FEELCYCLE 関西 Hit8【UMDE/UMDC/UMDW/SSB/SMY/KBS】 669 2020-08-05 21:36 5
ジャニーズ2 sc Kis-My-Ft2を語るスレ 662 2020-08-05 21:28 0
なんでも実況J sc こじるりの肉体wwwabcdefghijklmnopqrstuvwxyz 10 2020-08-05 17:53 2533
家庭用ゲーム sc 【PS4】Fall Guys: Ultimate Knockout Part 2 1001 2020-08-05 16:51 1394
ラジオ番組 sc α-Station FM-KYOTO 89.4-38th stage 505 2020-08-05 16:49 2
ニュー速VIP sc can i make script by javascript with firefox addon?your code is bad smell!! 2 2020-08-05 15:12 635
Netflix sc 【Netflix】フィアーシティ: ニューヨーク対マフィア / Fear City: New York vs The Mafia【五大ファミリー】 32 2020-08-05 14:51 2
ラブライブ! sc LoveLive! Sunshine!! Takami Chika First Solo Concert Album ~One More Sunshine Story~ 感想スレ 87 2020-08-05 09:50 19
家庭用ゲーム sc 【PS4】Fall Guys: Ultimate Knockout Part 1 1002 2020-08-05 00:20 746
モ娘(狼) sc 大手所属-ハロプロ、坂道 中堅事務所-BABYMETAL、Perfume、ももクロ 弱小事務所-AKB48、BiSH、でんぱ組 5 2020-08-04 18:27 41
なんでも実況J sc ベセスダ←2011年のskyrimから9年経過も続報なし UBIsoft← 62 2020-08-04 08:17 4104
スポーツ・RACE sc 【PS4/PC】Fall Guys: Ultimate Knockout Part 1 66 2020-08-04 07:47 21
噂話 sc K i s - M y - F t 2 の噂 Part2830 1001 2020-08-04 02:20 6470
噂話 sc K i s - M y - F t 2 の噂 Part2829 1001 2020-08-03 22:32 510
FF・ドラクエ sc 【FF7R】FINAL FANTASY VII REMAKE part330【リメイク】 5 2020-08-02 14:26 41
FF・ドラクエ sc 【FF7R】FINAL FANTASY VII REMAKE part329【リメイク】 1001 2020-08-02 13:58 204
ニュー速VIP sc Software error: Unmatched [ in regex; marked by 60 2020-08-02 01:17 5562
噂話 sc K i s - M y - F t 2 の噂 Part2828 1001 2020-08-01 23:23 590
ジャニーズ2 sc 【まえあし 】Kis-My-Ft2ファンスレ【 舞祭組】 108 2020-08-01 20:11 0
家ゲACT攻略 sc 【PS2】Def Jam Fight FOR NY【TAKEOVER】 390 2020-08-01 17:35 0
なんでも実況J sc Skyrim/Fallout4に詳しい人に相談なんやが、頭にLvlってついてるEditor IDは弄ってもええの? 19 2020-08-01 15:07 2787
PCアクション sc 【ARPG】INFERNO CLIMBER【ArcSystemWorks 】 311 2020-08-01 04:15 0
ラジオ番組 sc α-Station FM-KYOTO 89.4-36th stage 115 2020-08-01 00:32 0
スポーツクラブ sc FEELCYCLE OMY,KSG専用スレ Hit3 569 2020-07-31 23:41 0
噂話 sc K i s - M y - F t 2 の噂 Part2827 1001 2020-07-31 01:11 729
車種・メーカー sc 【MAZDA】マツダCX-5 2代目(KF) Vol.74【SKYACTIV】 46 2020-07-30 21:16 1
車種・メーカー sc 【MAZDA】マツダCX-5 2代目(KF) Vol.75【SKYACTIV】 1001 2020-07-30 08:57 43
携帯・PHS sc [PHS]終了日が2021年1月末に[現Y!mobile(softbank)] 22 2020-07-30 03:37 0
ニュー速VIP sc fuck my life is alone boy.but my heart is strong with strong zero power!! 2 2020-07-29 16:57 190
噂話 sc K i s - M y - F t 2 の噂 Part2826 1001 2020-07-29 16:11 730
ジャニーズ2 sc 【Kis-My-Ft2】舞祭組★23【ブサイク】 758 2020-07-29 01:48 0
FF・ドラクエ sc 【FF7R】FINAL FANTASY VII REMAKE part328【リメイク】 1001 2020-07-28 16:00 206

スポンサードリンク